sensor_id;sensor_type;location;lat;lon;timestamp;pressure;altitude;pressure_sealevel;temperature;humidity
73341;BME280;61578;52.002;5.468;2023-04-09T00:00:17;102578.03;;;11.32;75.79
73341;BME280;61578;52.002;5.468;2023-04-09T00:00:47;102578.84;;;11.34;74.93
73341;BME280;61578;52.002;5.468;2023-04-09T00:01:18;102580.53;;;11.36;75.00
73341;BME280;61578;52.002;5.468;2023-04-09T00:01:49;102582.38;;;11.34;75.14
73341;BME280;61578;52.002;5.468;2023-04-09T00:02:20;102585.84;;;11.36;75.02
73341;BME280;61578;52.002;5.468;2023-04-09T00:02:50;102584.13;;;11.35;74.75
73341;BME280;61578;52.002;5.468;2023-04-09T00:03:21;102582.25;;;11.37;74.76
73341;BME280;61578;52.002;5.468;2023-04-09T00:03:52;102566.47;;;11.33;74.66
73341;BME280;61578;52.002;5.468;2023-04-09T00:04:23;102576.03;;;11.38;74.73
73341;BME280;61578;52.002;5.468;2023-04-09T00:04:53;102573.38;;;11.38;74.93
73341;BME280;61578;52.002;5.468;2023-04-09T00:05:27;102575.22;;;11.36;75.08
73341;BME280;61578;52.002;5.468;2023-04-09T00:05:58;102572.50;;;11.38;74.35
73341;BME280;61578;52.002;5.468;2023-04-09T00:06:29;102584.97;;;11.36;74.25
73341;BME280;61578;52.002;5.468;2023-04-09T00:07:03;102579.66;;;11.36;73.95
73341;BME280;61578;52.002;5.468;2023-04-09T00:07:34;102581.47;;;11.35;74.02
73341;BME280;61578;52.002;5.468;2023-04-09T00:08:08;102580.59;;;11.35;74.92
73341;BME280;61578;52.002;5.468;2023-04-09T00:08:38;102575.22;;;11.36;74.90
73341;BME280;61578;52.002;5.468;2023-04-09T00:09:09;102579.66;;;11.36;74.87
73341;BME280;61578;52.002;5.468;2023-04-09T00:09:40;102584.00;;;11.38;75.32
73341;BME280;61578;52.002;5.468;2023-04-09T00:10:11;102577.06;;;11.34;75.07
73341;BME280;61578;52.002;5.468;2023-04-09T00:10:44;102586.53;;;11.41;75.05
73341;BME280;61578;52.002;5.468;2023-04-09T00:11:15;102577.75;;;11.39;74.72
73341;BME280;61578;52.002;5.468;2023-04-09T00:11:46;102579.59;;;11.37;74.78
73341;BME280;61578;52.002;5.468;2023-04-09T00:12:17;102579.59;;;11.37;74.93
73341;BME280;61578;52.002;5.468;2023-04-09T00:12:47;102584.13;;;11.35;75.64
73341;BME280;61578;52.002;5.468;2023-04-09T00:13:19;102575.16;;;11.38;75.43
73341;BME280;61578;52.002;5.468;2023-04-09T00:13:50;102576.94;;;11.37;75.92
73341;BME280;61578;52.002;5.468;2023-04-09T00:14:27;102577.81;;;11.38;75.54
73341;BME280;61578;52.002;5.468;2023-04-09T00:14:57;102571.63;;;11.37;74.86
73341;BME280;61578;52.002;5.468;2023-04-09T00:15:28;102580.47;;;11.38;75.49
73341;BME280;61578;52.002;5.468;2023-04-09T00:15:59;102569.94;;;11.35;75.19
73341;BME280;61578;52.002;5.468;2023-04-09T00:16:30;102578.78;;;11.35;75.02
73341;BME280;61578;52.002;5.468;2023-04-09T00:17:01;102573.41;;;11.37;75.49
73341;BME280;61578;52.002;5.468;2023-04-09T00:17:31;102575.16;;;11.38;75.48
73341;BME280;61578;52.002;5.468;2023-04-09T00:18:02;102582.25;;;11.37;74.96
73341;BME280;61578;52.002;5.468;2023-04-09T00:18:33;102579.66;;;11.36;75.64
73341;BME280;61578;52.002;5.468;2023-04-09T00:19:07;102578.78;;;11.35;75.58
73341;BME280;61578;52.002;5.468;2023-04-09T00:19:37;102578.75;;;11.37;75.79
73341;BME280;61578;52.002;5.468;2023-04-09T00:20:14;102578.69;;;11.38;75.52
73341;BME280;61578;52.002;5.468;2023-04-09T00:20:48;102568.03;;;11.38;75.52
73341;BME280;61578;52.002;5.468;2023-04-09T00:21:18;102570.72;;;11.38;75.30
73341;BME280;61578;52.002;5.468;2023-04-09T00:21:50;102568.03;;;11.38;75.35
73341;BME280;61578;52.002;5.468;2023-04-09T00:22:22;102571.56;;;11.39;75.18
73341;BME280;61578;52.002;5.468;2023-04-09T00:22:55;102565.38;;;11.38;75.27
73341;BME280;61578;52.002;5.468;2023-04-09T00:23:26;102572.50;;;11.38;75.21
73341;BME280;61578;52.002;5.468;2023-04-09T00:23:59;102554.16;;;11.30;75.63
73341;BME280;61578;52.002;5.468;2023-04-09T00:24:30;102561.09;;;11.34;74.73
73341;BME280;61578;52.002;5.468;2023-04-09T00:25:01;102567.28;;;11.35;75.02
73341;BME280;61578;52.002;5.468;2023-04-09T00:25:32;102569.09;;;11.34;74.40
73341;BME280;61578;52.002;5.468;2023-04-09T00:26:02;102571.69;;;11.36;75.22
73341;BME280;61578;52.002;5.468;2023-04-09T00:26:33;102564.69;;;11.33;75.01
73341;BME280;61578;52.002;5.468;2023-04-09T00:27:04;102570.97;;;11.31;74.85
73341;BME280;61578;52.002;5.468;2023-04-09T00:27:37;102570.13;;;11.30;74.46
73341;BME280;61578;52.002;5.468;2023-04-09T00:28:08;102561.28;;;11.30;74.93
73341;BME280;61578;52.002;5.468;2023-04-09T00:28:40;102566.47;;;11.33;75.35
73341;BME280;61578;52.002;5.468;2023-04-09T00:29:10;102562.91;;;11.34;75.51
73341;BME280;61578;52.002;5.468;2023-04-09T00:29:41;102562.03;;;11.33;74.77
73341;BME280;61578;52.002;5.468;2023-04-09T00:30:12;102562.84;;;11.35;74.92
73341;BME280;61578;52.002;5.468;2023-04-09T00:30:43;102570.75;;;11.37;74.57
73341;BME280;61578;52.002;5.468;2023-04-09T00:31:16;102560.34;;;11.31;74.95
73341;BME280;61578;52.002;5.468;2023-04-09T00:31:47;102572.50;;;11.38;75.26
73341;BME280;61578;52.002;5.468;2023-04-09T00:32:18;102561.00;;;11.37;74.71
73341;BME280;61578;52.002;5.468;2023-04-09T00:32:51;102558.44;;;11.34;75.16
73341;BME280;61578;52.002;5.468;2023-04-09T00:33:22;102561.91;;;11.36;74.92
73341;BME280;61578;52.002;5.468;2023-04-09T00:33:53;102558.38;;;11.36;74.58
73341;BME280;61578;52.002;5.468;2023-04-09T00:34:26;102565.50;;;11.35;74.71
73341;BME280;61578;52.002;5.468;2023-04-09T00:34:57;102562.13;;;11.30;75.50
73341;BME280;61578;52.002;5.468;2023-04-09T00:35:28;102561.09;;;11.34;75.39
73341;BME280;61578;52.002;5.468;2023-04-09T00:35:58;102559.38;;;11.33;75.51
73341;BME280;61578;52.002;5.468;2023-04-09T00:36:29;102569.03;;;11.36;75.14
73341;BME280;61578;52.002;5.468;2023-04-09T00:37:03;102525.44;;;11.18;75.44
73341;BME280;61578;52.002;5.468;2023-04-09T00:37:35;102568.09;;;11.37;75.76
73341;BME280;61578;52.002;5.468;2023-04-09T00:38:09;102566.31;;;11.37;75.32
73341;BME280;61578;52.002;5.468;2023-04-09T00:38:39;102556.59;;;11.36;74.69
73341;BME280;61578;52.002;5.468;2023-04-09T00:39:10;102559.25;;;11.36;74.66
73341;BME280;61578;52.002;5.468;2023-04-09T00:39:41;102547.13;;;11.29;74.36
73341;BME280;61578;52.002;5.468;2023-04-09T00:40:11;102541.94;;;11.26;74.35
73341;BME280;61578;52.002;5.468;2023-04-09T00:40:49;102551.38;;;11.33;73.85
73341;BME280;61578;52.002;5.468;2023-04-09T00:41:21;102554.88;;;11.35;74.33
73341;BME280;61578;52.002;5.468;2023-04-09T00:41:58;102549.84;;;11.28;74.03
73341;BME280;61578;52.002;5.468;2023-04-09T00:42:33;102555.84;;;11.33;74.30
73341;BME280;61578;52.002;5.468;2023-04-09T00:43:05;102565.50;;;11.35;74.75
73341;BME280;61578;52.002;5.468;2023-04-09T00:43:36;102557.53;;;11.35;74.70
73341;BME280;61578;52.002;5.468;2023-04-09T00:44:07;102548.72;;;11.33;74.54
73341;BME280;61578;52.002;5.468;2023-04-09T00:44:37;102558.38;;;11.36;74.13
73341;BME280;61578;52.002;5.468;2023-04-09T00:45:11;102556.66;;;11.35;74.67
73341;BME280;61578;52.002;5.468;2023-04-09T00:45:43;102562.84;;;11.35;74.45
73341;BME280;61578;52.002;5.468;2023-04-09T00:46:16;102557.53;;;11.35;74.71
73341;BME280;61578;52.002;5.468;2023-04-09T00:46:47;102553.06;;;11.36;75.29
73341;BME280;61578;52.002;5.468;2023-04-09T00:47:18;102554.81;;;11.37;74.79
73341;BME280;61578;52.002;5.468;2023-04-09T00:47:49;102552.19;;;11.35;75.01
73341;BME280;61578;52.002;5.468;2023-04-09T00:48:21;102555.66;;;11.37;75.23
73341;BME280;61578;52.002;5.468;2023-04-09T00:48:52;102559.19;;;11.38;75.29
73341;BME280;61578;52.002;5.468;2023-04-09T00:49:23;102547.75;;;11.36;74.76
73341;BME280;61578;52.002;5.468;2023-04-09T00:49:56;102539.22;;;11.28;74.95
73341;BME280;61578;52.002;5.468;2023-04-09T00:50:27;102553.06;;;11.36;75.15
73341;BME280;61578;52.002;5.468;2023-04-09T00:50:58;102554.00;;;11.35;74.73
73341;BME280;61578;52.002;5.468;2023-04-09T00:51:29;102550.47;;;11.34;74.80
73341;BME280;61578;52.002;5.468;2023-04-09T00:52:03;102545.16;;;11.34;75.90
73341;BME280;61578;52.002;5.468;2023-04-09T00:52:35;102540.09;;;11.28;75.01
73341;BME280;61578;52.002;5.468;2023-04-09T00:53:06;102549.59;;;11.34;74.75
73341;BME280;61578;52.002;5.468;2023-04-09T00:53:36;102545.22;;;11.33;74.98
73341;BME280;61578;52.002;5.468;2023-04-09T00:54:10;102551.34;;;11.35;74.77
73341;BME280;61578;52.002;5.468;2023-04-09T00:54:41;102546.88;;;11.35;75.25
73341;BME280;61578;52.002;5.468;2023-04-09T00:55:12;102542.50;;;11.34;75.32
73341;BME280;61578;52.002;5.468;2023-04-09T00:55:46;102546.88;;;11.35;74.86
73341;BME280;61578;52.002;5.468;2023-04-09T00:56:17;102547.75;;;11.36;74.88
73341;BME280;61578;52.002;5.468;2023-04-09T00:56:58;102539.34;;;11.25;74.69
73341;BME280;61578;52.002;5.468;2023-04-09T00:57:29;102554.09;;;11.32;75.25
73341;BME280;61578;52.002;5.468;2023-04-09T00:58:00;102545.22;;;11.33;75.02
73341;BME280;61578;52.002;5.468;2023-04-09T00:58:31;102546.06;;;11.33;75.30
73341;BME280;61578;52.002;5.468;2023-04-09T00:59:07;102548.72;;;11.33;74.94
73341;BME280;61578;52.002;5.468;2023-04-09T00:59:38;102549.59;;;11.34;74.72
73341;BME280;61578;52.002;5.468;2023-04-09T01:00:13;102547.13;;;11.29;74.38
73341;BME280;61578;52.002;5.468;2023-04-09T01:00:44;102546.13;;;11.32;74.25
73341;BME280;61578;52.002;5.468;2023-04-09T01:01:15;102544.34;;;11.32;74.20
73341;BME280;61578;52.002;5.468;2023-04-09T01:01:46;102548.78;;;11.32;74.10
73341;BME280;61578;52.002;5.468;2023-04-09T01:02:23;102554.06;;;11.33;73.99
73341;BME280;61578;52.002;5.468;2023-04-09T01:02:56;102546.06;;;11.33;74.49
73341;BME280;61578;52.002;5.468;2023-04-09T01:03:29;102546.00;;;11.35;74.16
73341;BME280;61578;52.002;5.468;2023-04-09T01:04:00;102548.63;;;11.36;74.14
73341;BME280;61578;52.002;5.468;2023-04-09T01:04:32;102555.66;;;11.37;73.92
73341;BME280;61578;52.002;5.468;2023-04-09T01:05:04;102547.75;;;11.36;74.82
73341;BME280;61578;52.002;5.468;2023-04-09T01:05:43;102547.63;;;11.39;74.72
73341;BME280;61578;52.002;5.468;2023-04-09T01:06:44;102549.28;;;11.41;73.90
73341;BME280;61578;52.002;5.468;2023-04-09T01:09:44;102545.84;;;11.39;74.30
73341;BME280;61578;52.002;5.468;2023-04-09T01:10:46;102548.41;;;11.41;74.12
73341;BME280;61578;52.002;5.468;2023-04-09T01:11:31;102551.16;;;11.39;74.40
73341;BME280;61578;52.002;5.468;2023-04-09T01:12:18;102538.22;;;11.30;74.46
73341;BME280;61578;52.002;5.468;2023-04-09T01:14:38;102546.00;;;11.35;73.79
73341;BME280;61578;52.002;5.468;2023-04-09T01:15:19;102542.50;;;11.34;74.07
73341;BME280;61578;52.002;5.468;2023-04-09T01:15:59;102541.63;;;11.34;73.65
73341;BME280;61578;52.002;5.468;2023-04-09T01:16:35;102544.28;;;11.34;74.74
73341;BME280;61578;52.002;5.468;2023-04-09T01:17:20;102545.22;;;11.33;74.51
73341;BME280;61578;52.002;5.468;2023-04-09T01:18:05;102543.34;;;11.35;74.04
73341;BME280;61578;52.002;5.468;2023-04-09T01:18:51;102535.63;;;11.29;74.23
73341;BME280;61578;52.002;5.468;2023-04-09T01:19:53;102548.72;;;11.33;74.85
73341;BME280;61578;52.002;5.468;2023-04-09T01:20:38;102541.69;;;11.32;74.32
73341;BME280;61578;52.002;5.468;2023-04-09T01:21:20;102543.41;;;11.33;75.01
73341;BME280;61578;52.002;5.468;2023-04-09T01:21:57;102525.88;;;11.29;75.37
73341;BME280;61578;52.002;5.468;2023-04-09T01:22:39;102544.22;;;11.35;74.70
73341;BME280;61578;52.002;5.468;2023-04-09T01:27:04;102525.78;;;11.31;74.08
73341;BME280;61578;52.002;5.468;2023-04-09T01:27:46;102529.44;;;11.28;73.33
73341;BME280;61578;52.002;5.468;2023-04-09T01:28:55;102534.69;;;11.30;74.68
73341;BME280;61578;52.002;5.468;2023-04-09T01:29:37;102523.38;;;11.25;74.13
73341;BME280;61578;52.002;5.468;2023-04-09T01:30:15;102526.84;;;11.27;74.86
73341;BME280;61578;52.002;5.468;2023-04-09T01:30:58;102534.50;;;11.34;74.59
73341;BME280;61578;52.002;5.468;2023-04-09T01:31:36;102529.19;;;11.34;74.26
73341;BME280;61578;52.002;5.468;2023-04-09T01:32:10;102532.78;;;11.33;74.10
73341;BME280;61578;52.002;5.468;2023-04-09T01:32:43;102533.69;;;11.32;74.62
73341;BME280;61578;52.002;5.468;2023-04-09T01:33:17;102538.16;;;11.32;75.17
73341;BME280;61578;52.002;5.468;2023-04-09T01:33:51;102538.97;;;11.34;75.28
73341;BME280;61578;52.002;5.468;2023-04-09T01:34:22;102535.44;;;11.33;75.28
73341;BME280;61578;52.002;5.468;2023-04-09T01:34:54;102530.13;;;11.33;75.12
73341;BME280;61578;52.002;5.468;2023-04-09T01:35:27;102541.56;;;11.35;75.26
73341;BME280;61578;52.002;5.468;2023-04-09T01:36:00;102537.13;;;11.36;75.13
73341;BME280;61578;52.002;5.468;2023-04-09T01:36:35;102532.66;;;11.36;74.64
73341;BME280;61578;52.002;5.468;2023-04-09T01:37:11;102527.41;;;11.35;73.86
73341;BME280;61578;52.002;5.468;2023-04-09T01:37:45;102530.13;;;11.33;74.01
73341;BME280;61578;52.002;5.468;2023-04-09T01:38:20;102530.97;;;11.34;74.74
73341;BME280;61578;52.002;5.468;2023-04-09T01:38:54;102530.06;;;11.35;75.19
73341;BME280;61578;52.002;5.468;2023-04-09T01:39:27;102523.88;;;11.34;74.85
73341;BME280;61578;52.002;5.468;2023-04-09T01:40:02;102530.13;;;11.33;74.43
73341;BME280;61578;52.002;5.468;2023-04-09T01:40:34;102531.84;;;11.34;74.01
73341;BME280;61578;52.002;5.468;2023-04-09T01:41:07;102527.47;;;11.33;73.84
73341;BME280;61578;52.002;5.468;2023-04-09T01:41:42;102529.19;;;11.34;74.38
73341;BME280;61578;52.002;5.468;2023-04-09T01:42:15;102525.72;;;11.32;74.67
73341;BME280;61578;52.002;5.468;2023-04-09T01:42:51;102528.38;;;11.32;74.03
73341;BME280;61578;52.002;5.468;2023-04-09T01:43:26;102524.00;;;11.31;74.07
73341;BME280;61578;52.002;5.468;2023-04-09T01:44:00;102526.59;;;11.33;74.10
73341;BME280;61578;52.002;5.468;2023-04-09T01:44:33;102530.13;;;11.33;74.59
73341;BME280;61578;52.002;5.468;2023-04-09T01:45:07;102517.75;;;11.32;75.18
73341;BME280;61578;52.002;5.468;2023-04-09T01:45:42;102527.47;;;11.33;74.73
73341;BME280;61578;52.002;5.468;2023-04-09T01:46:17;102519.69;;;11.29;74.85
73341;BME280;61578;52.002;5.468;2023-04-09T01:46:49;102526.53;;;11.34;73.90
73341;BME280;61578;52.002;5.468;2023-04-09T01:47:21;102528.28;;;11.35;73.67
73341;BME280;61578;52.002;5.468;2023-04-09T01:47:54;102530.22;;;11.30;74.16
73341;BME280;61578;52.002;5.468;2023-04-09T01:48:28;102528.38;;;11.32;74.14
73341;BME280;61578;52.002;5.468;2023-04-09T01:49:09;102526.59;;;11.33;74.35
73341;BME280;61578;52.002;5.468;2023-04-09T01:49:41;102522.13;;;11.33;74.58
73341;BME280;61578;52.002;5.468;2023-04-09T01:50:13;102513.72;;;11.22;74.31
73341;BME280;61578;52.002;5.468;2023-04-09T01:50:45;102524.03;;;11.30;74.80
73341;BME280;61578;52.002;5.468;2023-04-09T01:51:17;102512.81;;;11.23;74.83
73341;BME280;61578;52.002;5.468;2023-04-09T01:51:49;102526.78;;;11.28;75.38
73341;BME280;61578;52.002;5.468;2023-04-09T01:52:20;102519.75;;;11.27;75.60
73341;BME280;61578;52.002;5.468;2023-04-09T01:52:51;102527.66;;;11.29;74.70
73341;BME280;61578;52.002;5.468;2023-04-09T01:53:22;102516.22;;;11.27;74.61
73341;BME280;61578;52.002;5.468;2023-04-09T01:53:53;102520.59;;;11.28;75.36
73341;BME280;61578;52.002;5.468;2023-04-09T01:54:24;102521.38;;;11.30;75.05
73341;BME280;61578;52.002;5.468;2023-04-09T01:54:55;102518.81;;;11.28;75.03
73341;BME280;61578;52.002;5.468;2023-04-09T01:55:26;102517.13;;;11.26;75.21
73341;BME280;61578;52.002;5.468;2023-04-09T01:56:00;102526.78;;;11.28;74.43
73341;BME280;61578;52.002;5.468;2023-04-09T01:56:44;102518.81;;;11.28;74.94
73341;BME280;61578;52.002;5.468;2023-04-09T01:57:16;102517.03;;;11.29;75.02
73341;BME280;61578;52.002;5.468;2023-04-09T01:57:47;102524.03;;;11.30;75.29
73341;BME280;61578;52.002;5.468;2023-04-09T01:58:17;102516.94;;;11.30;75.29
73341;BME280;61578;52.002;5.468;2023-04-09T01:58:48;102514.22;;;11.32;75.97
73341;BME280;61578;52.002;5.468;2023-04-09T01:59:19;102517.63;;;11.35;75.49
73341;BME280;61578;52.002;5.468;2023-04-09T01:59:50;102516.75;;;11.35;74.91
73341;BME280;61578;52.002;5.468;2023-04-09T02:00:22;102525.66;;;11.34;75.14
73341;BME280;61578;52.002;5.468;2023-04-09T02:01:05;102519.47;;;11.33;75.51
73341;BME280;61578;52.002;5.468;2023-04-09T02:01:47;102523.13;;;11.31;74.65
73341;BME280;61578;52.002;5.468;2023-04-09T02:02:36;102525.94;;;11.28;75.41
73341;BME280;61578;52.002;5.468;2023-04-09T02:03:43;102522.25;;;11.30;75.11
73341;BME280;61578;52.002;5.468;2023-04-09T02:04:34;102527.56;;;11.30;75.03
73341;BME280;61578;52.002;5.468;2023-04-09T02:05:11;102510.09;;;11.25;74.53
73341;BME280;61578;52.002;5.468;2023-04-09T02:05:56;102529.25;;;11.33;74.92
73341;BME280;61578;52.002;5.468;2023-04-09T02:06:50;102517.81;;;11.31;75.03
73341;BME280;61578;52.002;5.468;2023-04-09T02:07:38;102522.25;;;11.30;74.42
73341;BME280;61578;52.002;5.468;2023-04-09T02:08:20;102525.88;;;11.29;74.83
73341;BME280;61578;52.002;5.468;2023-04-09T02:08:52;102523.00;;;11.34;75.11
73341;BME280;61578;52.002;5.468;2023-04-09T02:09:31;102504.75;;;11.25;75.38
73341;BME280;61578;52.002;5.468;2023-04-09T02:10:08;102525.66;;;11.34;75.40
73341;BME280;61578;52.002;5.468;2023-04-09T02:10:49;102521.28;;;11.33;75.53
73341;BME280;61578;52.002;5.468;2023-04-09T02:11:28;102522.03;;;11.36;75.64
73341;BME280;61578;52.002;5.468;2023-04-09T02:12:05;102518.56;;;11.34;75.18
73341;BME280;61578;52.002;5.468;2023-04-09T02:12:46;102520.34;;;11.34;75.54
73341;BME280;61578;52.002;5.468;2023-04-09T02:13:25;102520.41;;;11.32;75.47
73341;BME280;61578;52.002;5.468;2023-04-09T02:13:58;102521.31;;;11.31;75.32
73341;BME280;61578;52.002;5.468;2023-04-09T02:14:34;102514.28;;;11.30;74.78
73341;BME280;61578;52.002;5.468;2023-04-09T02:15:08;102515.22;;;11.29;75.21
73341;BME280;61578;52.002;5.468;2023-04-09T02:15:41;102520.56;;;11.29;74.56
73341;BME280;61578;52.002;5.468;2023-04-09T02:16:14;102517.94;;;11.28;74.50
73341;BME280;61578;52.002;5.468;2023-04-09T02:16:46;102513.50;;;11.28;74.68
73341;BME280;61578;52.002;5.468;2023-04-09T02:17:18;102515.22;;;11.29;74.89
73341;BME280;61578;52.002;5.468;2023-04-09T02:17:49;102517.94;;;11.28;75.04
73341;BME280;61578;52.002;5.468;2023-04-09T02:18:27;102519.69;;;11.29;75.62
73341;BME280;61578;52.002;5.468;2023-04-09T02:18:59;102518.81;;;11.28;75.36
73341;BME280;61578;52.002;5.468;2023-04-09T02:19:43;102510.84;;;11.28;75.26
73341;BME280;61578;52.002;5.468;2023-04-09T02:20:17;102514.38;;;11.29;75.30
73341;BME280;61578;52.002;5.468;2023-04-09T02:20:48;102515.22;;;11.29;75.47
73341;BME280;61578;52.002;5.468;2023-04-09T02:21:19;102521.38;;;11.30;75.52
73341;BME280;61578;52.002;5.468;2023-04-09T02:21:50;102509.03;;;11.29;75.13
73341;BME280;61578;52.002;5.468;2023-04-09T02:22:24;102511.75;;;11.27;75.59
73341;BME280;61578;52.002;5.468;2023-04-09T02:22:57;102510.75;;;11.30;75.72
73341;BME280;61578;52.002;5.468;2023-04-09T02:23:28;102507.25;;;11.29;76.14
73341;BME280;61578;52.002;5.468;2023-04-09T02:23:58;102507.53;;;11.22;74.79
73341;BME280;61578;52.002;5.468;2023-04-09T02:24:30;102514.41;;;11.27;75.40
73341;BME280;61578;52.002;5.468;2023-04-09T02:25:01;102510.84;;;11.28;75.97
73341;BME280;61578;52.002;5.468;2023-04-09T02:25:32;102518.00;;;11.26;75.34
73341;BME280;61578;52.002;5.468;2023-04-09T02:26:03;102510.03;;;11.26;74.86
73341;BME280;61578;52.002;5.468;2023-04-09T02:26:33;102501.25;;;11.24;75.28
73341;BME280;61578;52.002;5.468;2023-04-09T02:27:05;102507.38;;;11.26;75.20
73341;BME280;61578;52.002;5.468;2023-04-09T02:27:37;102511.75;;;11.27;75.48
73341;BME280;61578;52.002;5.468;2023-04-09T02:28:11;102513.50;;;11.28;75.53
73341;BME280;61578;52.002;5.468;2023-04-09T02:28:48;102508.97;;;11.30;75.17
73341;BME280;61578;52.002;5.468;2023-04-09T02:29:19;102513.34;;;11.31;75.93
73341;BME280;61578;52.002;5.468;2023-04-09T02:29:50;102507.25;;;11.29;75.30
73341;BME280;61578;52.002;5.468;2023-04-09T02:30:21;102508.78;;;11.35;75.20
73341;BME280;61578;52.002;5.468;2023-04-09T02:30:51;102504.44;;;11.32;75.04
73341;BME280;61578;52.002;5.468;2023-04-09T02:31:22;102493.16;;;11.27;75.50
73341;BME280;61578;52.002;5.468;2023-04-09T02:31:53;102506.19;;;11.33;74.81
73341;BME280;61578;52.002;5.468;2023-04-09T02:32:24;102501.78;;;11.32;75.19
73341;BME280;61578;52.002;5.468;2023-04-09T02:32:55;102503.63;;;11.30;74.84
73341;BME280;61578;52.002;5.468;2023-04-09T02:33:26;102493.31;;;11.23;75.29
73341;BME280;61578;52.002;5.468;2023-04-09T02:33:57;102501.94;;;11.29;75.54
73341;BME280;61578;52.002;5.468;2023-04-09T02:34:30;102498.41;;;11.29;75.59
73341;BME280;61578;52.002;5.468;2023-04-09T02:35:01;102492.44;;;11.22;75.05
73341;BME280;61578;52.002;5.468;2023-04-09T02:35:32;102497.66;;;11.25;75.43
73341;BME280;61578;52.002;5.468;2023-04-09T02:36:04;102509.03;;;11.29;75.34
73341;BME280;61578;52.002;5.468;2023-04-09T02:36:35;102499.13;;;11.32;75.84
73341;BME280;61578;52.002;5.468;2023-04-09T02:37:06;102500.06;;;11.31;75.26
73341;BME280;61578;52.002;5.468;2023-04-09T02:37:37;102493.00;;;11.30;75.50
73341;BME280;61578;52.002;5.468;2023-04-09T02:38:08;102501.94;;;11.29;75.64
73341;BME280;61578;52.002;5.468;2023-04-09T02:38:43;102501.94;;;11.29;75.12
73341;BME280;61578;52.002;5.468;2023-04-09T02:39:14;102503.72;;;11.29;75.25
73341;BME280;61578;52.002;5.468;2023-04-09T02:39:45;102498.53;;;11.26;74.53
73341;BME280;61578;52.002;5.468;2023-04-09T02:40:16;102499.34;;;11.28;75.15
73341;BME280;61578;52.002;5.468;2023-04-09T02:40:47;102501.13;;;11.27;75.02
73341;BME280;61578;52.002;5.468;2023-04-09T02:41:20;102494.94;;;11.27;74.92
73341;BME280;61578;52.002;5.468;2023-04-09T02:41:52;102491.47;;;11.25;74.86
73341;BME280;61578;52.002;5.468;2023-04-09T02:42:22;102499.38;;;11.26;75.20
73341;BME280;61578;52.002;5.468;2023-04-09T02:42:53;102502.06;;;11.26;75.57
73341;BME280;61578;52.002;5.468;2023-04-09T02:43:24;102492.34;;;11.25;74.72
73341;BME280;61578;52.002;5.468;2023-04-09T02:44:01;102495.16;;;11.21;75.17
73341;BME280;61578;52.002;5.468;2023-04-09T02:44:37;102495.94;;;11.24;75.24
73341;BME280;61578;52.002;5.468;2023-04-09T02:45:09;102502.88;;;11.28;74.53
73341;BME280;61578;52.002;5.468;2023-04-09T02:45:42;102501.13;;;11.27;74.67
73341;BME280;61578;52.002;5.468;2023-04-09T02:46:13;102503.84;;;11.26;74.33
73341;BME280;61578;52.002;5.468;2023-04-09T02:46:46;102498.53;;;11.26;74.45
73341;BME280;61578;52.002;5.468;2023-04-09T02:47:18;102495.06;;;11.24;74.72
73341;BME280;61578;52.002;5.468;2023-04-09T02:47:50;102501.25;;;11.24;74.78
73341;BME280;61578;52.002;5.468;2023-04-09T02:48:23;102497.66;;;11.25;74.51
73341;BME280;61578;52.002;5.468;2023-04-09T02:48:57;102495.06;;;11.24;74.75
73341;BME280;61578;52.002;5.468;2023-04-09T02:49:28;102495.00;;;11.25;74.03
73341;BME280;61578;52.002;5.468;2023-04-09T02:50:02;102492.34;;;11.25;74.11
73341;BME280;61578;52.002;5.468;2023-04-09T02:50:34;102498.53;;;11.26;74.63
73341;BME280;61578;52.002;5.468;2023-04-09T02:51:05;102489.69;;;11.25;74.61
73341;BME280;61578;52.002;5.468;2023-04-09T02:51:36;102490.59;;;11.24;74.85
73341;BME280;61578;52.002;5.468;2023-04-09T02:52:11;102488.00;;;11.23;74.94
73341;BME280;61578;52.002;5.468;2023-04-09T02:52:45;102492.41;;;11.24;75.33
73341;BME280;61578;52.002;5.468;2023-04-09T02:53:20;102494.13;;;11.25;75.26
73341;BME280;61578;52.002;5.468;2023-04-09T02:53:53;102488.75;;;11.26;75.07
73341;BME280;61578;52.002;5.468;2023-04-09T02:54:24;102487.13;;;11.22;75.03
73341;BME280;61578;52.002;5.468;2023-04-09T02:55:01;102496.72;;;11.26;75.44
73341;BME280;61578;52.002;5.468;2023-04-09T02:55:31;102497.59;;;11.27;75.46
73341;BME280;61578;52.002;5.468;2023-04-09T02:56:02;102493.22;;;11.26;75.50
73341;BME280;61578;52.002;5.468;2023-04-09T02:56:33;102491.41;;;11.26;75.50
73341;BME280;61578;52.002;5.468;2023-04-09T02:57:04;102489.63;;;11.27;75.34
73341;BME280;61578;52.002;5.468;2023-04-09T02:57:35;102481.72;;;11.25;75.36
73341;BME280;61578;52.002;5.468;2023-04-09T02:58:08;102477.38;;;11.23;74.98
73341;BME280;61578;52.002;5.468;2023-04-09T02:58:39;102493.16;;;11.27;75.35
73341;BME280;61578;52.002;5.468;2023-04-09T02:59:10;102487.88;;;11.26;75.15
73341;BME280;61578;52.002;5.468;2023-04-09T02:59:41;102489.63;;;11.27;75.72
73341;BME280;61578;52.002;5.468;2023-04-09T03:00:12;102482.81;;;11.20;75.49
73341;BME280;61578;52.002;5.468;2023-04-09T03:00:46;102488.81;;;11.25;75.37
73341;BME280;61578;52.002;5.468;2023-04-09T03:01:17;102487.88;;;11.26;75.03
73341;BME280;61578;52.002;5.468;2023-04-09T03:01:48;102489.69;;;11.25;75.22
73341;BME280;61578;52.002;5.468;2023-04-09T03:02:19;102493.22;;;11.26;75.08
73341;BME280;61578;52.002;5.468;2023-04-09T03:02:49;102485.28;;;11.24;75.11
73341;BME280;61578;52.002;5.468;2023-04-09T03:03:20;102488.75;;;11.26;75.19
73341;BME280;61578;52.002;5.468;2023-04-09T03:03:51;102492.34;;;11.25;75.70
73341;BME280;61578;52.002;5.468;2023-04-09T03:04:21;102481.75;;;11.24;75.29
73341;BME280;61578;52.002;5.468;2023-04-09T03:04:52;102486.16;;;11.25;75.69